Greenwood, South Dakota
Current Conditions -  °F | °C
As of 7:35 PM on Wednesday 22 Oct 2014 (Local Time) from KYKN Reporting Station
Overcast Overcast  
Wind Chill: 13°   Ceiling: 400
Heat Index: 13°   Visibility: 10mi
Dew Point: 12°   Wind: 6mph
Humidity: 94%   Direction: 250°WSW
Pressure: 30.01"   Gusts: NA
Location:  43.0908°N, 98.2525°W
Report Text: KYKN 230035Z AUTO 25005KT 10SM OVC004 13/12 A3001 RMK AO1
Loading
Personal Weather Stations






























Interactive Weather Map
Tropical Storm Tracking
New forecast layout! Learn more

10-Day Weather Forecast

Advertisements
Track Severe Weather on mobile